| time (UTC) | temp C | wind direction | speed KPH | gust KPH | rain 1hr cm | rain 24hr cm | rain mn cm | humidity % | barometer mb |
| 20260509053124 | 13 | 45 | 0.0 | 0.0 | 0.00 | 0.00 | 0.00 | 80 | 1021.5 |
| 20260509052123 | 13 | 90 | 0.0 | 0.0 | 0.00 | 0.00 | 0.00 | 80 | 1021.6 |
| 20260509051123 | 13 | 113 | 0.0 | 0.0 | 0.00 | 0.00 | 0.00 | 80 | 1021.6 |
| 20260509050123 | 13 | 45 | 0.0 | 0.0 | 0.00 | 0.00 | 0.00 | 81 | 1021.5 |
| 20260509045144 | 13 | 45 | 0.0 | 0.0 | 0.00 | 0.00 | 0.00 | 81 | 1021.5 |
| 20260509044124 | 13 | 45 | 0.0 | 0.0 | 0.00 | 0.00 | 0.00 | 82 | 1021.3 |
| 20260509043123 | 13 | 68 | 0.0 | 0.0 | 0.00 | 0.00 | 0.00 | 83 | 1021.3 |
| 20260509042145 | 13 | 90 | 0.0 | 0.0 | 0.00 | 0.00 | 0.00 | 82 | 1021.2 |
| 20260509041144 | 13 | 113 | 0.0 | 0.0 | 0.00 | 0.00 | 0.00 | 81 | 1021.2 |
| 20260509040123 | 13 | 90 | 0.0 | 0.0 | 0.00 | 0.00 | 0.00 | 81 | 1021.0 |
| 20260509035123 | 13 | 45 | 0.0 | 0.0 | 0.00 | 0.00 | 0.00 | 80 | 1021.0 |
| 20260509034123 | 13 | 90 | 0.0 | 0.0 | 0.00 | 0.00 | 0.00 | 80 | 1020.8 |
| 20260509033123 | 13 | 68 | 0.0 | 3.2 | 0.00 | 0.00 | 0.00 | 78 | 1020.8 |
| 20260509032123 | 14 | 167 | 0.0 | 3.2 | 0.00 | 0.00 | 0.00 | 77 | 1020.8 |
| 20260509031144 | 14 | 135 | 0.0 | 3.2 | 0.00 | 0.00 | 0.00 | 76 | 1020.7 |
| 20260509030123 | 14 | 113 | 0.0 | 3.2 | 0.00 | 0.00 | 0.00 | 76 | 1020.7 |
| 20260509025124 | 15 | 90 | 0.0 | 3.2 | 0.00 | 0.00 | 0.00 | 76 | 1020.7 |
| 20260509024123 | 15 | 113 | 0.0 | 4.8 | 0.00 | 0.00 | 0.00 | 74 | 1020.6 |
| 20260509023123 | 15 | 105 | 0.0 | 4.8 | 0.00 | 0.00 | 0.00 | 74 | 1020.5 |
| 20260509022144 | 15 | 117 | 0.0 | 4.8 | 0.00 | 0.00 | 0.00 | 73 | 1020.3 |
| 20260509021123 | 15 | 80 | 0.0 | 6.4 | 0.00 | 0.00 | 0.00 | 73 | 1020.3 |
| 20260509020124 | 15 | 90 | 0.0 | 4.8 | 0.00 | 0.00 | 0.00 | 73 | 1020.3 |
| 20260509015123 | 15 | 101 | 0.0 | 9.7 | 0.00 | 0.00 | 0.00 | 72 | 1020.3 |
| 20260509014124 | 15 | 173 | 0.0 | 4.8 | 0.00 | 0.00 | 0.00 | 72 | 1020.3 |
| 20260509013123 | 15 | 104 | 0.0 | 4.8 | 0.00 | 0.00 | 0.00 | 72 | 1020.3 |
| 20260509012123 | 16 | 113 | 0.0 | 3.2 | 0.00 | 0.00 | 0.00 | 71 | 1020.3 |
| 20260509011123 | 16 | 117 | 0.0 | 4.8 | 0.00 | 0.00 | 0.00 | 70 | 1020.2 |
| 20260509010123 | 16 | 95 | 0.0 | 11.3 | 0.00 | 0.00 | 0.00 | 69 | 1020.2 |
| 20260509005145 | 16 | 143 | 0.0 | 4.8 | 0.00 | 0.00 | 0.00 | 70 | 1020.2 |
| 20260509004123 | 17 | 135 | 0.0 | 3.2 | 0.00 | 0.00 | 0.00 | 66 | 1020.1 |
| 20260509003124 | 17 | 110 | 0.0 | 9.7 | 0.00 | 0.00 | 0.00 | 66 | 1020.1 |
| 20260509002123 | 17 | 158 | 0.0 | 4.8 | 0.00 | 0.00 | 0.00 | 66 | 1020.1 |
| 20260509001123 | 17 | 160 | 1.6 | 12.9 | 0.00 | 0.00 | 0.00 | 66 | 1020.1 |
| 20260509000123 | 17 | 180 | 0.0 | 11.3 | 0.00 | 0.00 | 0.00 | 65 | 1020.1 |
| 20260508235123 | 17 | 112 | 0.0 | 6.4 | 0.00 | 0.00 | 0.00 | 65 | 1020.1 |
| 20260508234124 | 17 | 135 | 0.0 | 8.0 | 0.00 | 0.00 | 0.00 | 68 | 1020.1 |
| 20260508233123 | 16 | 159 | 0.0 | 9.7 | 0.00 | 0.00 | 0.00 | 68 | 1019.8 |
| 20260508232124 | 16 | 119 | 3.2 | 22.5 | 0.00 | 0.00 | 0.00 | 68 | 1020.0 |
| 20260508231123 | 17 | 111 | 4.8 | 17.7 | 0.00 | 0.00 | 0.00 | 70 | 1020.1 |
| 20260508230124 | 16 | 137 | 4.8 | 20.9 | 0.00 | 0.00 | 0.00 | 70 | 1020.1 |
| 20260508225123 | 16 | 150 | 3.2 | 16.1 | 0.00 | 0.00 | 0.00 | 71 | 1020.1 |
| 20260508224144 | 16 | 153 | 3.2 | 19.3 | 0.00 | 0.00 | 0.00 | 71 | 1019.8 |
| 20260508223123 | 16 | 147 | 3.2 | 16.1 | 0.00 | 0.00 | 0.00 | 70 | 1019.7 |
| 20260508222123 | 16 | 130 | 3.2 | 20.9 | 0.00 | 0.00 | 0.00 | 70 | 1019.8 |
| 20260508221145 | 16 | 127 | 4.8 | 24.1 | 0.00 | 0.00 | 0.00 | 70 | 1019.7 |
| 20260508220123 | 16 | 143 | 4.8 | 22.5 | 0.00 | 0.00 | 0.00 | 69 | 1019.7 |
| 20260508215124 | 17 | 152 | 3.2 | 19.3 | 0.00 | 0.00 | 0.00 | 69 | 1019.7 |
| 20260508214123 | 17 | 116 | 8.0 | 22.5 | 0.00 | 0.00 | 0.00 | 70 | 1019.5 |
| 20260508213123 | 16 | 128 | 4.8 | 22.5 | 0.00 | 0.00 | 0.00 | 70 | 1019.5 |
| 20260508212124 | 17 | 141 | 4.8 | 25.7 | 0.00 | 0.00 | 0.00 | 69 | 1019.5 |
| 20260508211123 | 17 | 96 | 4.8 | 24.1 | 0.00 | 0.00 | 0.00 | 69 | 1019.3 |
| 20260508210124 | 17 | 130 | 3.2 | 20.9 | 0.00 | 0.00 | 0.00 | 70 | 1019.3 |
| 20260508205123 | 16 | 138 | 4.8 | 37.0 | 0.00 | 0.00 | 0.00 | 72 | 1019.3 |
| 20260508204124 | 16 | 144 | 3.2 | 24.1 | 0.00 | 0.00 | 0.00 | 73 | 1019.2 |
| 20260508203144 | 16 | 119 | 0.0 | 4.8 | 0.00 | 0.00 | 0.00 | 75 | 1019.3 |
| 20260508202123 | 16 | 124 | 0.0 | 12.9 | 0.00 | 0.00 | 0.00 | 74 | 1019.1 |
| 20260508201145 | 16 | 125 | 0.0 | 9.7 | 0.00 | 0.00 | 0.00 | 76 | 1019.0 |
| 20260508200144 | 16 | 107 | 0.0 | 3.2 | 0.00 | 0.00 | 0.00 | 76 | 1018.8 |
| 20260508195124 | 16 | 144 | 0.0 | 3.2 | 0.00 | 0.00 | 0.00 | 75 | 1018.8 |
| 20260508194123 | 16 | 104 | 0.0 | 3.2 | 0.00 | 0.00 | 0.00 | 76 | 1018.7 |
| 20260508193123 | 15 | 108 | 0.0 | 12.9 | 0.00 | 0.00 | 0.00 | 78 | 1018.7 |
| 20260508192123 | 15 | 113 | 0.0 | 4.8 | 0.00 | 0.00 | 0.00 | 79 | 1018.3 |
| 20260508191123 | 15 | 110 | 0.0 | 6.4 | 0.00 | 0.00 | 0.00 | 81 | 1018.3 |
| 20260508190123 | 15 | 84 | 0.0 | 4.8 | 0.00 | 0.00 | 0.00 | 81 | 1018.2 |
| 20260508185123 | 15 | 158 | 0.0 | 3.2 | 0.00 | 0.00 | 0.00 | 81 | 1018.2 |
| 20260508184124 | 15 | 101 | 0.0 | 3.2 | 0.00 | 0.00 | 0.00 | 84 | 1018.1 |
| 20260508183123 | 15 | 113 | 0.0 | 3.2 | 0.00 | 0.00 | 0.00 | 87 | 1017.8 |
| 20260508182145 | 15 | 113 | 0.0 | 0.0 | 0.00 | 0.00 | 0.00 | 87 | 1017.8 |
| 20260508181123 | 14 | 124 | 0.0 | 8.0 | 0.00 | 0.00 | 0.00 | 87 | 1017.8 |
| 20260508180123 | 14 | 110 | 0.0 | 12.9 | 0.00 | 0.00 | 0.00 | 87 | 1017.7 |
| 20260508175123 | 15 | 56 | 0.0 | 3.2 | 0.00 | 0.00 | 0.00 | 88 | 1017.7 |
| 20260508174123 | 13 | 113 | 0.0 | 8.0 | 0.00 | 0.00 | 0.00 | 89 | 1017.6 |
| 20260508173124 | 13 | 119 | 0.0 | 4.8 | 0.00 | 0.00 | 0.00 | 90 | 1017.7 |
| 20260508172123 | 13 | 156 | 0.0 | 4.8 | 0.00 | 0.00 | 0.00 | 89 | 1017.6 |
| 20260508171124 | 15 | 141 | 0.0 | 3.2 | 0.00 | 0.00 | 0.00 | 88 | 1017.2 |
| 20260508170123 | 15 | 135 | 0.0 | 3.2 | 0.00 | 0.00 | 0.00 | 87 | 1016.8 |
| 20260508165123 | 15 | 171 | 0.0 | 4.8 | 0.00 | 0.00 | 0.00 | 88 | 1016.8 |
| 20260508164123 | 15 | 113 | 0.0 | 4.8 | 0.00 | 0.00 | 0.00 | 88 | 1017.0 |
| 20260508163122 | 15 | 90 | 0.0 | 8.0 | 0.00 | 0.00 | 0.00 | 89 | 1017.0 |
| 20260508162123 | 14 | 40 | 0.0 | 9.7 | 0.00 | 0.00 | 0.00 | 91 | 1016.8 |
| 20260508161123 | 14 | 135 | 0.0 | 0.0 | 0.00 | 0.00 | 0.00 | 91 | 1016.7 |
| 20260508160123 | 14 | 113 | 0.0 | 3.2 | 0.00 | 0.00 | 0.00 | 91 | 1016.5 |
| 20260508155143 | 14 | 90 | 0.0 | 4.8 | 0.00 | 0.00 | 0.00 | 91 | 1016.5 |
| 20260508154123 | 13 | 68 | 0.0 | 0.0 | 0.00 | 0.00 | 0.00 | 93 | 1016.5 |
| 20260508153123 | 13 | 90 | 0.0 | 0.0 | 0.00 | 0.00 | 0.00 | 94 | 1016.6 |
| 20260508152144 | 13 | 113 | 0.0 | 3.2 | 0.00 | 0.00 | 0.00 | 95 | 1016.6 |
| 20260508151145 | 13 | 135 | 0.0 | 0.0 | 0.00 | 0.00 | 0.00 | 95 | 1016.3 |
| 20260508150122 | 13 | 113 | 0.0 | 0.0 | 0.00 | 0.00 | 0.00 | 95 | 1016.5 |
| 20260508145124 | 13 | 113 | 0.0 | 0.0 | 0.00 | 0.00 | 0.00 | 95 | 1016.5 |
| 20260508144143 | 13 | 135 | 0.0 | 0.0 | 0.00 | 0.00 | 0.00 | 95 | 1016.3 |
| 20260508143123 | 13 | 113 | 0.0 | 0.0 | 0.00 | 0.00 | 0.00 | 96 | 1016.1 |
| 20260508142144 | 13 | 113 | 0.0 | 0.0 | 0.00 | 0.00 | 0.00 | 96 | 1015.8 |
| 20260508141123 | 12 | 113 | 0.0 | 0.0 | 0.00 | 0.00 | 0.00 | 97 | 1015.8 |
| 20260508140124 | 12 | 90 | 0.0 | 0.0 | 0.00 | 0.00 | 0.00 | 98 | 1015.8 |
| 20260508135143 | 12 | 68 | 0.0 | 0.0 | 0.00 | 0.00 | 0.00 | 98 | 1015.8 |
| 20260508134123 | 12 | 90 | 0.0 | 0.0 | 0.00 | 0.00 | 0.00 | 98 | 1015.8 |
| 20260508133122 | 12 | 90 | 0.0 | 0.0 | 0.00 | 0.00 | 0.00 | 98 | 1015.7 |
| 20260508132123 | 12 | 113 | 0.0 | 0.0 | 0.00 | 0.00 | 0.00 | 98 | 1015.6 |
| 20260508131122 | 13 | 113 | 0.0 | 0.0 | 0.00 | 0.00 | 0.00 | 98 | 1015.6 |
| 20260508130122 | 13 | 113 | 0.0 | 0.0 | 0.00 | 0.00 | 0.00 | 97 | 1015.7 |
| 20260508125123 | 13 | 113 | 0.0 | 0.0 | 0.00 | 0.00 | 0.00 | 96 | 1015.7 |
| 20260508124122 | 12 | 113 | 0.0 | 0.0 | 0.00 | 0.00 | 0.00 | 96 | 1015.5 |
| 20260508123122 | 13 | 68 | 0.0 | 0.0 | 0.00 | 0.00 | 0.00 | 96 | 1015.3 |
| 20260508122123 | 13 | 90 | 0.0 | 0.0 | 0.00 | 0.00 | 0.00 | 96 | 1015.5 |
| 20260508121124 | 13 | 90 | 0.0 | 0.0 | 0.00 | 0.00 | 0.00 | 96 | 1015.3 |
| 20260508120143 | 13 | 113 | 0.0 | 0.0 | 0.00 | 0.00 | 0.00 | 96 | 1015.3 |
| 20260508115122 | 12 | 113 | 0.0 | 0.0 | 0.00 | 0.00 | 0.00 | 96 | 1015.3 |
| 20260508114123 | 12 | 90 | 0.0 | 0.0 | 0.00 | 0.00 | 0.00 | 96 | 1015.3 |
| 20260508113122 | 12 | 45 | 0.0 | 0.0 | 0.00 | 0.00 | 0.00 | 96 | 1015.2 |
| 20260508112123 | 12 | 45 | 0.0 | 0.0 | 0.00 | 0.00 | 0.00 | 96 | 1015.2 |
| 20260508111144 | 12 | 90 | 0.0 | 0.0 | 0.00 | 0.00 | 0.00 | 95 | 1015.2 |
| 20260508110143 | 13 | 45 | 0.0 | 0.0 | 0.00 | 0.00 | 0.00 | 94 | 1015.1 |
| 20260508105123 | 13 | 45 | 0.0 | 0.0 | 0.00 | 0.00 | 0.00 | 93 | 1015.1 |
| 20260508104122 | 13 | 90 | 0.0 | 0.0 | 0.00 | 0.00 | 0.00 | 93 | 1015.2 |
| 20260508103144 | 13 | 45 | 0.0 | 0.0 | 0.00 | 0.00 | 0.00 | 93 | 1015.2 |
| 20260508102143 | 13 | 68 | 0.0 | 0.0 | 0.00 | 0.00 | 0.00 | 93 | 1015.1 |
| 20260508101144 | 13 | 113 | 0.0 | 0.0 | 0.00 | 0.00 | 0.00 | 93 | 1015.2 |
| 20260508100122 | 13 | 68 | 0.0 | 0.0 | 0.00 | 0.00 | 0.00 | 93 | 1015.2 |
| 20260508095123 | 13 | 68 | 0.0 | 0.0 | 0.00 | 0.00 | 0.00 | 93 | 1015.2 |
| 20260508094122 | 13 | 113 | 0.0 | 0.0 | 0.00 | 0.00 | 0.00 | 92 | 1015.1 |
| 20260508093144 | 13 | 113 | 0.0 | 0.0 | 0.00 | 0.00 | 0.00 | 92 | 1015.1 |
| 20260508092143 | 13 | 45 | 0.0 | 0.0 | 0.00 | 0.00 | 0.00 | 92 | 1015.0 |
| 20260508091122 | 13 | 23 | 0.0 | 0.0 | 0.00 | 0.00 | 0.00 | 93 | 1014.8 |
| 20260508090122 | 13 | 45 | 0.0 | 0.0 | 0.00 | 0.00 | 0.00 | 93 | 1015.1 |
| 20260508085123 | 13 | 45 | 0.0 | 0.0 | 0.00 | 0.00 | 0.00 | 93 | 1015.1 |
| 20260508084122 | 13 | 45 | 0.0 | 0.0 | 0.00 | 0.00 | 0.00 | 93 | 1015.2 |
| 20260508083143 | 13 | 45 | 0.0 | 0.0 | 0.00 | 0.00 | 0.00 | 93 | 1015.2 |
| 20260508082122 | 13 | 45 | 0.0 | 0.0 | 0.00 | 0.00 | 0.00 | 94 | 1015.2 |
| 20260508081122 | 13 | 45 | 0.0 | 0.0 | 0.00 | 0.00 | 0.00 | 94 | 1015.2 |
| 20260508080122 | 13 | 45 | 0.0 | 0.0 | 0.00 | 0.00 | 0.00 | 95 | 1015.3 |
| 20260508075143 | 13 | 45 | 0.0 | 0.0 | 0.00 | 0.00 | 0.00 | 95 | 1015.3 |
| 20260508074122 | 12 | 68 | 0.0 | 0.0 | 0.00 | 0.00 | 0.00 | 95 | 1015.3 |
| 20260508073123 | 12 | 45 | 0.0 | 0.0 | 0.00 | 0.00 | 0.00 | 96 | 1015.5 |
| 20260508072122 | 12 | 45 | 0.0 | 0.0 | 0.00 | 0.00 | 0.00 | 96 | 1015.6 |
| 20260508071122 | 12 | 45 | 0.0 | 0.0 | 0.00 | 0.00 | 0.00 | 96 | 1015.5 |
| 20260508070122 | 12 | 45 | 0.0 | 0.0 | 0.00 | 0.00 | 0.00 | 96 | 1015.6 |
| 20260508065122 | 12 | 68 | 0.0 | 0.0 | 0.00 | 0.00 | 0.00 | 96 | 1015.6 |
| 20260508064122 | 12 | 45 | 0.0 | 0.0 | 0.00 | 0.00 | 0.00 | 96 | 1015.8 |
| 20260508063123 | 13 | 360 | 0.0 | 0.0 | 0.00 | 0.00 | 0.00 | 96 | 1015.7 |
| 20260508062123 | 13 | 68 | 0.0 | 0.0 | 0.00 | 0.00 | 0.00 | 97 | 1015.7 |
| 20260508061122 | 13 | 45 | 0.0 | 0.0 | 0.00 | 0.00 | 0.00 | 97 | 1015.8 |
| 20260508060123 | 13 | 90 | 0.0 | 0.0 | 0.00 | 0.00 | 0.00 | 96 | 1015.6 |
| 20260508055122 | 13 | 45 | 0.0 | 0.0 | 0.00 | 0.00 | 0.00 | 93 | 1015.6 |
| 20260508054122 | 13 | 113 | 0.0 | 0.0 | 0.00 | 0.00 | 0.00 | 93 | 1015.6 |